sensor_id;sensor_type;location;lat;lon;timestamp;temperature;humidity
5828;DHT22;42583;50.240;8.444;2023-03-11T00:00:39;-0.50;99.90
5828;DHT22;42583;50.240;8.444;2023-03-11T00:15:42;-0.50;99.90
5828;DHT22;42583;50.240;8.444;2023-03-11T00:30:44;-0.50;99.90
5828;DHT22;42583;50.240;8.444;2023-03-11T00:45:45;-0.70;99.90
5828;DHT22;42583;50.240;8.444;2023-03-11T01:00:46;-0.80;99.90
5828;DHT22;42583;50.240;8.444;2023-03-11T01:15:46;-0.90;99.90
5828;DHT22;42583;50.240;8.444;2023-03-11T01:30:47;-0.80;99.90
5828;DHT22;42583;50.240;8.444;2023-03-11T02:00:55;-0.80;99.90
5828;DHT22;42583;50.240;8.444;2023-03-11T02:15:56;-0.70;99.90
5828;DHT22;42583;50.240;8.444;2023-03-11T02:30:57;-0.70;99.90
5828;DHT22;42583;50.240;8.444;2023-03-11T02:45:57;-0.80;99.90
5828;DHT22;42583;50.240;8.444;2023-03-11T03:00:59;-0.80;99.90
5828;DHT22;42583;50.240;8.444;2023-03-11T03:15:59;-0.80;99.90
5828;DHT22;42583;50.240;8.444;2023-03-11T03:31:04;-0.70;99.90
5828;DHT22;42583;50.240;8.444;2023-03-11T03:46:05;-0.80;99.90
5828;DHT22;42583;50.240;8.444;2023-03-11T04:01:08;-0.70;99.90
5828;DHT22;42583;50.240;8.444;2023-03-11T04:16:15;-0.60;99.90
5828;DHT22;42583;50.240;8.444;2023-03-11T04:31:16;-0.70;99.90
5828;DHT22;42583;50.240;8.444;2023-03-11T04:46:16;-0.60;99.90
5828;DHT22;42583;50.240;8.444;2023-03-11T05:01:17;-0.50;99.90
5828;DHT22;42583;50.240;8.444;2023-03-11T05:16:17;-0.60;99.90
5828;DHT22;42583;50.240;8.444;2023-03-11T05:31:18;-0.60;99.90
5828;DHT22;42583;50.240;8.444;2023-03-11T05:46:18;-0.60;99.90
5828;DHT22;42583;50.240;8.444;2023-03-11T06:01:19;-0.70;99.90
5828;DHT22;42583;50.240;8.444;2023-03-11T06:16:21;-0.70;99.90
5828;DHT22;42583;50.240;8.444;2023-03-11T06:31:27;-0.70;99.90
5828;DHT22;42583;50.240;8.444;2023-03-11T06:46:28;-0.70;99.90
5828;DHT22;42583;50.240;8.444;2023-03-11T07:01:28;-0.70;99.90
5828;DHT22;42583;50.240;8.444;2023-03-11T07:16:29;-0.60;99.90
5828;DHT22;42583;50.240;8.444;2023-03-11T07:31:33;-0.50;99.90
5828;DHT22;42583;50.240;8.444;2023-03-11T07:46:34;-0.20;99.90
5828;DHT22;42583;50.240;8.444;2023-03-11T08:01:34;0.10;99.90
5828;DHT22;42583;50.240;8.444;2023-03-11T08:16:37;0.30;99.90
5828;DHT22;42583;50.240;8.444;2023-03-11T08:31:38;0.50;99.90
5828;DHT22;42583;50.240;8.444;2023-03-11T08:46:39;0.80;99.90
5828;DHT22;42583;50.240;8.444;2023-03-11T09:01:39;0.70;99.90
5828;DHT22;42583;50.240;8.444;2023-03-11T09:16:41;1.50;99.90
5828;DHT22;42583;50.240;8.444;2023-03-11T09:31:42;3.00;99.90
5828;DHT22;42583;50.240;8.444;2023-03-11T10:02:14;3.40;99.90
5828;DHT22;42583;50.240;8.444;2023-03-11T10:47:55;4.00;99.90
5828;DHT22;42583;50.240;8.444;2023-03-11T11:02:57;6.10;99.90
5828;DHT22;42583;50.240;8.444;2023-03-11T11:18:04;4.90;99.90
5828;DHT22;42583;50.240;8.444;2023-03-11T11:33:33;3.90;98.00
5828;DHT22;42583;50.240;8.444;2023-03-11T11:48:46;3.60;98.90
5828;DHT22;42583;50.240;8.444;2023-03-11T12:03:52;3.70;97.80
5828;DHT22;42583;50.240;8.444;2023-03-11T12:19:01;4.20;93.80
5828;DHT22;42583;50.240;8.444;2023-03-11T12:34:05;3.80;90.50
5828;DHT22;42583;50.240;8.444;2023-03-11T13:04:29;8.10;92.30
5828;DHT22;42583;50.240;8.444;2023-03-11T13:19:37;6.50;75.60
5828;DHT22;42583;50.240;8.444;2023-03-11T13:34:51;5.40;77.10
5828;DHT22;42583;50.240;8.444;2023-03-11T13:50:04;4.50;75.50
5828;DHT22;42583;50.240;8.444;2023-03-11T14:05:14;5.00;79.10
5828;DHT22;42583;50.240;8.444;2023-03-11T14:20:17;5.40;78.20
5828;DHT22;42583;50.240;8.444;2023-03-11T14:35:20;5.00;80.10
5828;DHT22;42583;50.240;8.444;2023-03-11T14:50:23;4.70;79.80
5828;DHT22;42583;50.240;8.444;2023-03-11T15:05:36;5.80;81.70
5828;DHT22;42583;50.240;8.444;2023-03-11T15:20:38;6.80;81.00
5828;DHT22;42583;50.240;8.444;2023-03-11T15:35:47;6.70;79.50
5828;DHT22;42583;50.240;8.444;2023-03-11T15:50:53;6.80;82.80
5828;DHT22;42583;50.240;8.444;2023-03-11T16:05:57;7.70;74.30
5828;DHT22;42583;50.240;8.444;2023-03-11T16:20:57;6.70;75.80
5828;DHT22;42583;50.240;8.444;2023-03-11T16:35:58;5.70;76.30
5828;DHT22;42583;50.240;8.444;2023-03-11T16:50:58;5.00;75.30
5828;DHT22;42583;50.240;8.444;2023-03-11T17:06:01;4.50;75.60
5828;DHT22;42583;50.240;8.444;2023-03-11T17:21:09;3.90;74.60
5828;DHT22;42583;50.240;8.444;2023-03-11T17:36:13;3.20;74.80
5828;DHT22;42583;50.240;8.444;2023-03-11T17:51:23;2.60;74.70
5828;DHT22;42583;50.240;8.444;2023-03-11T18:06:25;2.20;76.00
5828;DHT22;42583;50.240;8.444;2023-03-11T18:21:28;1.60;75.80
5828;DHT22;42583;50.240;8.444;2023-03-11T18:36:31;1.00;76.20
5828;DHT22;42583;50.240;8.444;2023-03-11T18:51:32;0.70;78.40
5828;DHT22;42583;50.240;8.444;2023-03-11T19:06:32;0.40;80.00
5828;DHT22;42583;50.240;8.444;2023-03-11T19:21:33;0.20;81.20
5828;DHT22;42583;50.240;8.444;2023-03-11T19:36:33;0.00;82.00
5828;DHT22;42583;50.240;8.444;2023-03-11T19:51:34;-0.30;82.90
5828;DHT22;42583;50.240;8.444;2023-03-11T20:06:34;-0.40;84.40
5828;DHT22;42583;50.240;8.444;2023-03-11T20:21:35;-0.50;85.50
5828;DHT22;42583;50.240;8.444;2023-03-11T20:36:40;-0.70;86.00
5828;DHT22;42583;50.240;8.444;2023-03-11T20:51:40;-0.90;86.80
5828;DHT22;42583;50.240;8.444;2023-03-11T21:06:43;-1.00;87.70
5828;DHT22;42583;50.240;8.444;2023-03-11T21:21:43;-1.20;87.30
5828;DHT22;42583;50.240;8.444;2023-03-11T21:36:44;-1.30;87.80
5828;DHT22;42583;50.240;8.444;2023-03-11T21:51:44;-1.40;87.20
5828;DHT22;42583;50.240;8.444;2023-03-11T22:06:45;-1.40;86.90
5828;DHT22;42583;50.240;8.444;2023-03-11T22:21:46;-1.40;86.50
5828;DHT22;42583;50.240;8.444;2023-03-11T22:36:47;-1.30;86.30
5828;DHT22;42583;50.240;8.444;2023-03-11T22:51:48;-1.30;85.70
5828;DHT22;42583;50.240;8.444;2023-03-11T23:06:48;-1.30;85.50
5828;DHT22;42583;50.240;8.444;2023-03-11T23:21:49;-1.30;85.10
5828;DHT22;42583;50.240;8.444;2023-03-11T23:36:50;-1.20;84.80
5828;DHT22;42583;50.240;8.444;2023-03-11T23:51:50;-1.30;84.20
